Airfield :
LOGIN :

Register | Disclaimer

   EN    FR    IT 

 










Legend :    VFR   Marginal VFR   IFR   Intensive IFR   Very Intensive IFR
Visi :
Ceiling :
>= 8 km
>= 3000ft
5 to 8 km
1000 to 3000 ft
1500m to 5 km
500 to 1000 ft
800 to 1500m
200 to 500 ft
< 800m
< 200 ft
Symbols :   Thunderstorms  Fog  Heavy snow  Heavy precipitations  Wind > 20 kt
SIGMETs :     Misc.  Thunderstorms  Icing  Turbulence  Mountain Waves  Volcanic Ashes







- Airport Elevation : 184 ft
- IATA code : BRU


EBBR - Bruxelles

CURRENT METAR :
  • 262120Z VRB01KT 3800 BR FEW040 14/13 Q1022 BECMG 2500 BR

EXPIRED METARs :
  • 262050Z 14001KT 3800 BR FEW040 14/13 Q1022 BECMG 2500 BR
  • 262020Z VRB02KT 3800 BR FEW040TCU 15/13 Q1023 BECMG 2500 BR
  • 261950Z 07004KT 4000 BR FEW040TCU 15/13 Q1022 BECMG 2500 BR
  • 261920Z 06003KT 4000 BR NSC 14/13 Q1022 BECMG 2500 BR
  • 261850Z 06003KT 5000 BR NSC 15/13 Q1022 BECMG 2500 BR

TAF AMD TAF EBBR
Valid from the 26 at 19:00 until the 28 at 00:00 UTC


261719Z 2619/2724 07005KT 3500 BR NSC
BECMG 2623/2702 2000
PROB40
TEMPO 2703/2708 0500 FG VV001
BECMG 2707/2709 9999 NSW
No reported NOTAMs for that airfield.



MET'MAP, your aeronautical weather chart ! - Copyright ORBIFLY December 2007 - Disclaimer

ORBIFLY MET'MAP TEAM :

Programming & Development : Alexandra Zaïnal
Concept & Development : Baudouin d'Aumeries
Co-Development & Prog : Marc-Olivier Méhu
Technical & hardware support : Manuel Goepfert

Contact : metmap@orbifly.com




SOURCES & CREDITS :

   NOAA